Pays
Station

 

Conditions  météo  pour  Laghouat  -  Algérie    Algérie

  
36 °C
    
 
 

METAR pour Laghouat :

DAUL 231700Z 12006KT 9999 FEW033CB SCT040 36/18 Q1018

 

Voici le bulletin pour Laghouat - Algérie.
 
Le bulletin a été fait il y a 36 minutes, à 17:00 UTC .
Le vent soufflait à la vitesse de 3.1 mètres par seconde de Est/Sud-est (120°).
 
La température était de 36 °C, avec un point de rosée à 18 °C.
La température ressentie était de 38 °C.
 
La pression atmosphérique était de 1018 hPa.
L'humidité relative était de 34.7%.
 
Il y avait 1 à 2/8ème cumulonimbus de nébulosité à une hauteur de 1006 mètres et 3 à 4/8ème de nébulosité à une hauteur de 1219 mètres.
 
La visibilité globale était de supérieure à 10 kilomètres.
 

 
 
 

Pays :   A   B   C   D   E   F   G   H   I   J   K   L   M   N   O   P   Q   R   S   T   U   V   W   Y   Z

 

Partenaires :  Info Météo avec Met'info
Météo Marine avec MeteoMarine.net
Infos Site  |  Infos Légales  |  Crédits  |  Confidentialité
Contactez-nous  |  Ajouter aux favoris
© 2013-2019 METAR - Tous droits réservés